sensor_id;sensor_type;location;lat;lon;timestamp;temperature;humidity
53776;DHT22;44276;49.534;6.378;2023-04-15T00:00:55;5.80;99.90
53776;DHT22;44276;49.534;6.378;2023-04-15T00:03:24;5.70;99.90
53776;DHT22;44276;49.534;6.378;2023-04-15T00:05:53;5.80;99.90
53776;DHT22;44276;49.534;6.378;2023-04-15T00:08:21;5.80;99.90
53776;DHT22;44276;49.534;6.378;2023-04-15T00:10:50;5.80;99.90
53776;DHT22;44276;49.534;6.378;2023-04-15T00:13:19;5.90;99.90
53776;DHT22;44276;49.534;6.378;2023-04-15T00:15:47;5.90;99.90
53776;DHT22;44276;49.534;6.378;2023-04-15T00:18:15;6.10;99.90
53776;DHT22;44276;49.534;6.378;2023-04-15T00:20:43;6.10;99.90
53776;DHT22;44276;49.534;6.378;2023-04-15T00:23:11;6.10;99.90
53776;DHT22;44276;49.534;6.378;2023-04-15T00:25:39;6.10;99.90
53776;DHT22;44276;49.534;6.378;2023-04-15T00:28:09;6.00;99.90
53776;DHT22;44276;49.534;6.378;2023-04-15T00:30:37;6.10;99.90
53776;DHT22;44276;49.534;6.378;2023-04-15T00:33:05;6.10;99.90
53776;DHT22;44276;49.534;6.378;2023-04-15T00:35:34;6.10;99.90
53776;DHT22;44276;49.534;6.378;2023-04-15T00:38:04;6.10;99.90
53776;DHT22;44276;49.534;6.378;2023-04-15T00:40:34;6.10;99.90
53776;DHT22;44276;49.534;6.378;2023-04-15T00:43:02;6.10;99.90
53776;DHT22;44276;49.534;6.378;2023-04-15T00:45:32;6.20;99.90
53776;DHT22;44276;49.534;6.378;2023-04-15T00:48:00;6.20;99.90
53776;DHT22;44276;49.534;6.378;2023-04-15T00:50:29;6.20;99.90
53776;DHT22;44276;49.534;6.378;2023-04-15T00:52:57;6.20;99.90
53776;DHT22;44276;49.534;6.378;2023-04-15T00:55:25;6.20;99.90
53776;DHT22;44276;49.534;6.378;2023-04-15T00:57:53;6.20;99.90
53776;DHT22;44276;49.534;6.378;2023-04-15T01:00:22;6.30;99.90
53776;DHT22;44276;49.534;6.378;2023-04-15T01:02:53;6.30;99.90
53776;DHT22;44276;49.534;6.378;2023-04-15T01:05:21;6.30;99.90
53776;DHT22;44276;49.534;6.378;2023-04-15T01:07:50;6.30;99.90
53776;DHT22;44276;49.534;6.378;2023-04-15T01:10:18;6.30;99.90
53776;DHT22;44276;49.534;6.378;2023-04-15T01:12:47;6.20;99.90
53776;DHT22;44276;49.534;6.378;2023-04-15T01:15:15;6.20;99.90
53776;DHT22;44276;49.534;6.378;2023-04-15T01:17:43;6.20;99.90
53776;DHT22;44276;49.534;6.378;2023-04-15T01:20:13;6.20;99.90
53776;DHT22;44276;49.534;6.378;2023-04-15T01:22:42;6.20;99.90
53776;DHT22;44276;49.534;6.378;2023-04-15T01:25:13;6.20;99.90
53776;DHT22;44276;49.534;6.378;2023-04-15T01:27:46;6.20;99.90
53776;DHT22;44276;49.534;6.378;2023-04-15T01:30:15;6.10;99.90
53776;DHT22;44276;49.534;6.378;2023-04-15T01:32:43;6.10;99.90
53776;DHT22;44276;49.534;6.378;2023-04-15T01:35:11;6.10;99.90
53776;DHT22;44276;49.534;6.378;2023-04-15T01:37:39;6.10;99.90
53776;DHT22;44276;49.534;6.378;2023-04-15T01:40:08;6.10;99.90
53776;DHT22;44276;49.534;6.378;2023-04-15T01:42:37;6.20;99.90
53776;DHT22;44276;49.534;6.378;2023-04-15T01:45:08;6.30;99.90
53776;DHT22;44276;49.534;6.378;2023-04-15T01:47:36;6.30;99.90
53776;DHT22;44276;49.534;6.378;2023-04-15T01:50:05;6.30;99.90
53776;DHT22;44276;49.534;6.378;2023-04-15T01:52:34;6.30;99.90
53776;DHT22;44276;49.534;6.378;2023-04-15T01:55:02;6.20;99.90
53776;DHT22;44276;49.534;6.378;2023-04-15T01:57:31;6.10;99.90
53776;DHT22;44276;49.534;6.378;2023-04-15T02:00:00;6.10;99.90
53776;DHT22;44276;49.534;6.378;2023-04-15T02:02:29;6.00;99.90
53776;DHT22;44276;49.534;6.378;2023-04-15T02:04:58;6.00;99.90
53776;DHT22;44276;49.534;6.378;2023-04-15T02:07:26;6.00;99.90
53776;DHT22;44276;49.534;6.378;2023-04-15T02:09:54;6.00;99.90
53776;DHT22;44276;49.534;6.378;2023-04-15T02:12:23;6.00;99.90
53776;DHT22;44276;49.534;6.378;2023-04-15T02:14:51;6.00;99.90
53776;DHT22;44276;49.534;6.378;2023-04-15T02:17:19;6.10;99.90
53776;DHT22;44276;49.534;6.378;2023-04-15T02:19:49;6.10;99.90
53776;DHT22;44276;49.534;6.378;2023-04-15T02:22:17;6.10;99.90
53776;DHT22;44276;49.534;6.378;2023-04-15T02:24:45;6.10;99.90
53776;DHT22;44276;49.534;6.378;2023-04-15T02:27:17;6.00;99.90
53776;DHT22;44276;49.534;6.378;2023-04-15T02:29:45;6.00;99.90
53776;DHT22;44276;49.534;6.378;2023-04-15T02:32:13;6.00;99.90
53776;DHT22;44276;49.534;6.378;2023-04-15T02:34:42;6.00;99.90
53776;DHT22;44276;49.534;6.378;2023-04-15T02:37:12;6.10;99.90
53776;DHT22;44276;49.534;6.378;2023-04-15T02:39:41;6.20;99.90
53776;DHT22;44276;49.534;6.378;2023-04-15T02:42:09;6.20;99.90
53776;DHT22;44276;49.534;6.378;2023-04-15T02:44:38;6.20;99.90
53776;DHT22;44276;49.534;6.378;2023-04-15T02:47:07;6.30;99.90
53776;DHT22;44276;49.534;6.378;2023-04-15T02:49:37;6.40;99.90
53776;DHT22;44276;49.534;6.378;2023-04-15T02:52:05;6.30;99.90
53776;DHT22;44276;49.534;6.378;2023-04-15T02:54:35;6.30;99.90
53776;DHT22;44276;49.534;6.378;2023-04-15T02:57:03;6.20;99.90
53776;DHT22;44276;49.534;6.378;2023-04-15T02:59:32;6.20;99.90
53776;DHT22;44276;49.534;6.378;2023-04-15T03:02:00;6.20;99.90
53776;DHT22;44276;49.534;6.378;2023-04-15T03:04:28;6.20;99.90
53776;DHT22;44276;49.534;6.378;2023-04-15T03:06:59;6.20;99.90
53776;DHT22;44276;49.534;6.378;2023-04-15T03:09:28;6.10;99.90
53776;DHT22;44276;49.534;6.378;2023-04-15T03:11:57;6.10;99.90
53776;DHT22;44276;49.534;6.378;2023-04-15T03:14:25;6.00;99.90
53776;DHT22;44276;49.534;6.378;2023-04-15T03:16:53;6.00;99.90
53776;DHT22;44276;49.534;6.378;2023-04-15T03:19:21;6.00;99.90
53776;DHT22;44276;49.534;6.378;2023-04-15T03:21:50;6.00;99.90
53776;DHT22;44276;49.534;6.378;2023-04-15T03:24:19;6.00;99.90
53776;DHT22;44276;49.534;6.378;2023-04-15T03:26:47;6.10;99.90
53776;DHT22;44276;49.534;6.378;2023-04-15T03:29:17;6.10;99.90
53776;DHT22;44276;49.534;6.378;2023-04-15T03:31:45;6.10;99.90
53776;DHT22;44276;49.534;6.378;2023-04-15T03:34:13;6.00;99.90
53776;DHT22;44276;49.534;6.378;2023-04-15T03:36:41;6.00;99.90
53776;DHT22;44276;49.534;6.378;2023-04-15T03:39:09;5.90;99.90
53776;DHT22;44276;49.534;6.378;2023-04-15T03:41:37;5.90;99.90
53776;DHT22;44276;49.534;6.378;2023-04-15T03:44:06;5.90;99.90
53776;DHT22;44276;49.534;6.378;2023-04-15T03:46:35;5.90;99.90
53776;DHT22;44276;49.534;6.378;2023-04-15T03:49:06;5.90;99.90
53776;DHT22;44276;49.534;6.378;2023-04-15T03:51:34;5.90;99.90
53776;DHT22;44276;49.534;6.378;2023-04-15T03:54:02;5.90;99.90
53776;DHT22;44276;49.534;6.378;2023-04-15T03:56:31;5.90;99.90
53776;DHT22;44276;49.534;6.378;2023-04-15T03:58:59;5.90;99.90
53776;DHT22;44276;49.534;6.378;2023-04-15T04:01:28;6.00;99.90
53776;DHT22;44276;49.534;6.378;2023-04-15T04:03:57;6.00;99.90
53776;DHT22;44276;49.534;6.378;2023-04-15T04:06:25;6.00;99.90
53776;DHT22;44276;49.534;6.378;2023-04-15T04:08:54;6.00;99.90
53776;DHT22;44276;49.534;6.378;2023-04-15T04:11:22;6.00;99.90
53776;DHT22;44276;49.534;6.378;2023-04-15T04:13:50;6.00;99.90
53776;DHT22;44276;49.534;6.378;2023-04-15T04:16:18;6.10;99.90
53776;DHT22;44276;49.534;6.378;2023-04-15T04:18:46;6.00;99.90
53776;DHT22;44276;49.534;6.378;2023-04-15T04:21:16;6.10;99.90
53776;DHT22;44276;49.534;6.378;2023-04-15T04:23:44;6.00;99.90
53776;DHT22;44276;49.534;6.378;2023-04-15T04:26:12;6.00;99.90
53776;DHT22;44276;49.534;6.378;2023-04-15T04:28:40;6.00;99.90
53776;DHT22;44276;49.534;6.378;2023-04-15T04:31:08;6.00;99.90
53776;DHT22;44276;49.534;6.378;2023-04-15T04:33:37;6.00;99.90
53776;DHT22;44276;49.534;6.378;2023-04-15T04:36:05;6.00;99.90
53776;DHT22;44276;49.534;6.378;2023-04-15T04:38:35;6.00;99.90
53776;DHT22;44276;49.534;6.378;2023-04-15T04:41:03;6.00;99.90
53776;DHT22;44276;49.534;6.378;2023-04-15T04:43:32;6.00;99.90
53776;DHT22;44276;49.534;6.378;2023-04-15T04:46:00;6.00;99.90
53776;DHT22;44276;49.534;6.378;2023-04-15T04:48:28;6.00;99.90
53776;DHT22;44276;49.534;6.378;2023-04-15T04:50:56;6.00;99.90
53776;DHT22;44276;49.534;6.378;2023-04-15T04:53:25;6.00;99.90
53776;DHT22;44276;49.534;6.378;2023-04-15T04:55:55;6.10;99.90
53776;DHT22;44276;49.534;6.378;2023-04-15T04:58:23;6.10;99.90
53776;DHT22;44276;49.534;6.378;2023-04-15T05:00:51;6.20;99.90
53776;DHT22;44276;49.534;6.378;2023-04-15T05:03:19;6.30;99.90
53776;DHT22;44276;49.534;6.378;2023-04-15T05:05:50;6.40;99.90
53776;DHT22;44276;49.534;6.378;2023-04-15T05:08:18;6.40;99.90
53776;DHT22;44276;49.534;6.378;2023-04-15T05:10:46;6.50;99.90
53776;DHT22;44276;49.534;6.378;2023-04-15T05:13:15;6.50;99.90
53776;DHT22;44276;49.534;6.378;2023-04-15T05:15:43;6.50;99.90
53776;DHT22;44276;49.534;6.378;2023-04-15T05:18:12;6.50;99.90
53776;DHT22;44276;49.534;6.378;2023-04-15T05:20:40;6.60;99.90
53776;DHT22;44276;49.534;6.378;2023-04-15T05:23:08;6.60;99.90
53776;DHT22;44276;49.534;6.378;2023-04-15T05:25:36;6.70;99.90
53776;DHT22;44276;49.534;6.378;2023-04-15T05:28:04;6.70;99.90
53776;DHT22;44276;49.534;6.378;2023-04-15T05:30:34;6.80;99.90
53776;DHT22;44276;49.534;6.378;2023-04-15T05:33:03;6.80;99.90
53776;DHT22;44276;49.534;6.378;2023-04-15T05:35:31;6.90;99.90
53776;DHT22;44276;49.534;6.378;2023-04-15T05:37:59;7.00;99.90
53776;DHT22;44276;49.534;6.378;2023-04-15T05:40:27;7.00;99.90
53776;DHT22;44276;49.534;6.378;2023-04-15T05:42:55;7.10;99.90
53776;DHT22;44276;49.534;6.378;2023-04-15T05:45:23;7.10;99.90
53776;DHT22;44276;49.534;6.378;2023-04-15T05:47:53;7.20;99.90
53776;DHT22;44276;49.534;6.378;2023-04-15T05:50:21;7.30;99.90
53776;DHT22;44276;49.534;6.378;2023-04-15T05:52:50;7.40;99.90
53776;DHT22;44276;49.534;6.378;2023-04-15T05:55:18;7.60;99.90
53776;DHT22;44276;49.534;6.378;2023-04-15T05:57:46;7.70;99.90
53776;DHT22;44276;49.534;6.378;2023-04-15T06:00:15;7.80;99.90
53776;DHT22;44276;49.534;6.378;2023-04-15T06:02:43;7.90;97.80
53776;DHT22;44276;49.534;6.378;2023-04-15T06:05:12;8.00;93.20
53776;DHT22;44276;49.534;6.378;2023-04-15T06:07:40;8.10;87.40
53776;DHT22;44276;49.534;6.378;2023-04-15T06:10:10;8.20;84.20
53776;DHT22;44276;49.534;6.378;2023-04-15T06:12:38;8.30;79.90
53776;DHT22;44276;49.534;6.378;2023-04-15T06:15:07;8.50;77.80
53776;DHT22;44276;49.534;6.378;2023-04-15T06:17:36;8.60;75.50
53776;DHT22;44276;49.534;6.378;2023-04-15T06:20:05;8.80;69.30
53776;DHT22;44276;49.534;6.378;2023-04-15T06:22:36;9.10;66.20
53776;DHT22;44276;49.534;6.378;2023-04-15T06:25:06;9.30;62.60
53776;DHT22;44276;49.534;6.378;2023-04-15T06:27:35;9.50;58.80
53776;DHT22;44276;49.534;6.378;2023-04-15T06:30:03;9.70;55.50
53776;DHT22;44276;49.534;6.378;2023-04-15T06:32:33;10.00;50.30
53776;DHT22;44276;49.534;6.378;2023-04-15T06:35:01;10.20;47.00
53776;DHT22;44276;49.534;6.378;2023-04-15T06:37:29;10.40;45.30
53776;DHT22;44276;49.534;6.378;2023-04-15T06:39:59;10.70;43.20
53776;DHT22;44276;49.534;6.378;2023-04-15T06:42:27;11.10;41.50
53776;DHT22;44276;49.534;6.378;2023-04-15T06:44:56;11.20;38.80
53776;DHT22;44276;49.534;6.378;2023-04-15T06:47:24;11.10;40.50
53776;DHT22;44276;49.534;6.378;2023-04-15T06:49:52;10.80;41.00
53776;DHT22;44276;49.534;6.378;2023-04-15T06:52:20;10.70;41.70
53776;DHT22;44276;49.534;6.378;2023-04-15T06:54:48;10.50;41.80
53776;DHT22;44276;49.534;6.378;2023-04-15T06:57:18;10.40;42.90
53776;DHT22;44276;49.534;6.378;2023-04-15T06:59:46;10.40;43.50
53776;DHT22;44276;49.534;6.378;2023-04-15T07:02:14;10.40;42.70
53776;DHT22;44276;49.534;6.378;2023-04-15T07:04:42;10.30;41.70
53776;DHT22;44276;49.534;6.378;2023-04-15T07:07:10;10.20;42.50
53776;DHT22;44276;49.534;6.378;2023-04-15T07:09:39;10.10;43.20
53776;DHT22;44276;49.534;6.378;2023-04-15T07:12:09;10.00;42.30
53776;DHT22;44276;49.534;6.378;2023-04-15T07:14:39;10.00;42.50
53776;DHT22;44276;49.534;6.378;2023-04-15T07:17:08;10.00;42.50
53776;DHT22;44276;49.534;6.378;2023-04-15T07:19:37;10.10;42.40
53776;DHT22;44276;49.534;6.378;2023-04-15T07:22:05;10.10;43.70
53776;DHT22;44276;49.534;6.378;2023-04-15T07:24:33;10.30;42.00
53776;DHT22;44276;49.534;6.378;2023-04-15T07:27:01;10.50;41.00
53776;DHT22;44276;49.534;6.378;2023-04-15T07:29:29;10.80;38.70
53776;DHT22;44276;49.534;6.378;2023-04-15T07:31:59;11.20;36.30
53776;DHT22;44276;49.534;6.378;2023-04-15T07:34:27;11.40;34.70
53776;DHT22;44276;49.534;6.378;2023-04-15T07:36:58;11.70;33.90
53776;DHT22;44276;49.534;6.378;2023-04-15T07:39:26;12.20;33.50
53776;DHT22;44276;49.534;6.378;2023-04-15T07:41:54;12.70;30.30
53776;DHT22;44276;49.534;6.378;2023-04-15T07:44:24;13.10;28.80
53776;DHT22;44276;49.534;6.378;2023-04-15T07:46:53;13.60;27.50
53776;DHT22;44276;49.534;6.378;2023-04-15T07:49:23;14.00;26.30
53776;DHT22;44276;49.534;6.378;2023-04-15T07:51:51;14.10;26.20
53776;DHT22;44276;49.534;6.378;2023-04-15T07:54:20;14.60;25.10
53776;DHT22;44276;49.534;6.378;2023-04-15T07:56:48;14.80;25.00
53776;DHT22;44276;49.534;6.378;2023-04-15T07:59:16;15.30;24.90
53776;DHT22;44276;49.534;6.378;2023-04-15T08:01:44;15.30;23.50
53776;DHT22;44276;49.534;6.378;2023-04-15T08:04:13;15.80;24.00
53776;DHT22;44276;49.534;6.378;2023-04-15T08:06:42;16.60;22.20
53776;DHT22;44276;49.534;6.378;2023-04-15T08:09:11;17.10;21.80
53776;DHT22;44276;49.534;6.378;2023-04-15T08:11:39;18.20;21.30
53776;DHT22;44276;49.534;6.378;2023-04-15T08:14:08;19.10;19.00
53776;DHT22;44276;49.534;6.378;2023-04-15T08:16:36;20.10;18.50
53776;DHT22;44276;49.534;6.378;2023-04-15T08:19:05;20.50;17.00
53776;DHT22;44276;49.534;6.378;2023-04-15T08:21:33;20.80;15.60
53776;DHT22;44276;49.534;6.378;2023-04-15T08:24:03;20.40;16.50
53776;DHT22;44276;49.534;6.378;2023-04-15T08:26:33;20.40;15.80
53776;DHT22;44276;49.534;6.378;2023-04-15T08:29:01;20.30;15.80
53776;DHT22;44276;49.534;6.378;2023-04-15T08:31:30;20.90;16.20
53776;DHT22;44276;49.534;6.378;2023-04-15T08:33:58;20.80;14.60
53776;DHT22;44276;49.534;6.378;2023-04-15T08:36:26;20.20;17.10
53776;DHT22;44276;49.534;6.378;2023-04-15T08:38:55;21.20;14.90
53776;DHT22;44276;49.534;6.378;2023-04-15T08:41:25;21.00;14.30
53776;DHT22;44276;49.534;6.378;2023-04-15T08:43:57;19.80;15.50
53776;DHT22;44276;49.534;6.378;2023-04-15T08:46:29;19.80;15.20
53776;DHT22;44276;49.534;6.378;2023-04-15T08:49:03;19.70;15.70
53776;DHT22;44276;49.534;6.378;2023-04-15T08:51:32;19.90;15.20
53776;DHT22;44276;49.534;6.378;2023-04-15T08:54:01;19.60;15.40
53776;DHT22;44276;49.534;6.378;2023-04-15T08:56:32;19.40;15.90
53776;DHT22;44276;49.534;6.378;2023-04-15T08:59:01;19.40;15.90
53776;DHT22;44276;49.534;6.378;2023-04-15T09:01:31;19.20;15.70
53776;DHT22;44276;49.534;6.378;2023-04-15T09:04:02;19.10;16.10
53776;DHT22;44276;49.534;6.378;2023-04-15T09:06:32;18.90;17.20
53776;DHT22;44276;49.534;6.378;2023-04-15T09:09:01;18.90;16.60
53776;DHT22;44276;49.534;6.378;2023-04-15T09:11:29;18.90;16.20
53776;DHT22;44276;49.534;6.378;2023-04-15T09:13:59;18.80;15.80
53776;DHT22;44276;49.534;6.378;2023-04-15T09:16:27;20.10;14.40
53776;DHT22;44276;49.534;6.378;2023-04-15T09:18:55;21.40;12.40
53776;DHT22;44276;49.534;6.378;2023-04-15T09:21:24;22.70;12.70
53776;DHT22;44276;49.534;6.378;2023-04-15T09:23:56;24.30;9.90
53776;DHT22;44276;49.534;6.378;2023-04-15T09:26:32;25.00;8.90
53776;DHT22;44276;49.534;6.378;2023-04-15T09:29:03;24.90;8.80
53776;DHT22;44276;49.534;6.378;2023-04-15T09:31:33;24.50;10.20
53776;DHT22;44276;49.534;6.378;2023-04-15T09:34:02;24.50;9.60
53776;DHT22;44276;49.534;6.378;2023-04-15T09:39:20;24.20;8.00
53776;DHT22;44276;49.534;6.378;2023-04-15T09:44:44;24.10;7.80
53776;DHT22;44276;49.534;6.378;2023-04-15T09:47:26;23.30;8.80
53776;DHT22;44276;49.534;6.378;2023-04-15T09:49:55;23.20;7.80
53776;DHT22;44276;49.534;6.378;2023-04-15T09:52:24;23.10;8.30
53776;DHT22;44276;49.534;6.378;2023-04-15T09:54:53;23.10;6.40
53776;DHT22;44276;49.534;6.378;2023-04-15T09:57:23;22.80;5.50
53776;DHT22;44276;49.534;6.378;2023-04-15T09:59:52;22.90;5.70
53776;DHT22;44276;49.534;6.378;2023-04-15T10:02:21;22.90;4.60
53776;DHT22;44276;49.534;6.378;2023-04-15T10:04:51;22.30;3.30
53776;DHT22;44276;49.534;6.378;2023-04-15T10:07:20;22.10;2.80
53776;DHT22;44276;49.534;6.378;2023-04-15T10:09:49;21.90;2.90
53776;DHT22;44276;49.534;6.378;2023-04-15T10:12:19;22.40;2.10
53776;DHT22;44276;49.534;6.378;2023-04-15T10:14:55;21.80;3.30
53776;DHT22;44276;49.534;6.378;2023-04-15T10:17:27;21.80;3.50
53776;DHT22;44276;49.534;6.378;2023-04-15T10:19:59;21.40;4.60
53776;DHT22;44276;49.534;6.378;2023-04-15T10:22:29;21.70;4.70
53776;DHT22;44276;49.534;6.378;2023-04-15T10:24:58;21.80;5.70
53776;DHT22;44276;49.534;6.378;2023-04-15T10:27:26;21.40;4.80
53776;DHT22;44276;49.534;6.378;2023-04-15T10:29:57;20.80;4.60
53776;DHT22;44276;49.534;6.378;2023-04-15T10:32:27;20.30;5.20
53776;DHT22;44276;49.534;6.378;2023-04-15T10:34:57;19.90;5.80
53776;DHT22;44276;49.534;6.378;2023-04-15T10:37:33;20.30;5.40
53776;DHT22;44276;49.534;6.378;2023-04-15T10:40:25;20.90;4.80
53776;DHT22;44276;49.534;6.378;2023-04-15T10:42:55;20.80;6.00
53776;DHT22;44276;49.534;6.378;2023-04-15T10:45:32;21.30;5.40
53776;DHT22;44276;49.534;6.378;2023-04-15T10:48:05;21.90;5.30
53776;DHT22;44276;49.534;6.378;2023-04-15T10:50:36;22.90;4.90
53776;DHT22;44276;49.534;6.378;2023-04-15T10:53:04;23.70;4.10
53776;DHT22;44276;49.534;6.378;2023-04-15T10:55:33;24.50;4.80
53776;DHT22;44276;49.534;6.378;2023-04-15T10:58:02;24.70;3.80
53776;DHT22;44276;49.534;6.378;2023-04-15T11:00:32;23.80;3.90
53776;DHT22;44276;49.534;6.378;2023-04-15T11:03:06;22.40;4.70
53776;DHT22;44276;49.534;6.378;2023-04-15T11:05:48;21.50;6.00
53776;DHT22;44276;49.534;6.378;2023-04-15T11:08:19;22.00;5.00
53776;DHT22;44276;49.534;6.378;2023-04-15T11:10:51;22.60;4.70
53776;DHT22;44276;49.534;6.378;2023-04-15T11:13:24;23.50;4.00
53776;DHT22;44276;49.534;6.378;2023-04-15T11:15:57;25.30;2.20
53776;DHT22;44276;49.534;6.378;2023-04-15T11:18:29;25.80;2.50
53776;DHT22;44276;49.534;6.378;2023-04-15T11:21:02;25.00;2.80
53776;DHT22;44276;49.534;6.378;2023-04-15T11:23:33;24.30;3.90
53776;DHT22;44276;49.534;6.378;2023-04-15T11:26:07;21.70;6.50
53776;DHT22;44276;49.534;6.378;2023-04-15T11:28:38;20.40;7.30
53776;DHT22;44276;49.534;6.378;2023-04-15T11:31:10;20.90;7.20
53776;DHT22;44276;49.534;6.378;2023-04-15T11:33:46;21.50;6.50
53776;DHT22;44276;49.534;6.378;2023-04-15T11:36:23;21.50;7.50
53776;DHT22;44276;49.534;6.378;2023-04-15T11:38:54;21.30;6.00
53776;DHT22;44276;49.534;6.378;2023-04-15T11:41:24;21.00;5.90
53776;DHT22;44276;49.534;6.378;2023-04-15T11:43:52;21.10;5.90
53776;DHT22;44276;49.534;6.378;2023-04-15T11:46:28;21.60;6.50
53776;DHT22;44276;49.534;6.378;2023-04-15T11:48:57;22.70;6.00
53776;DHT22;44276;49.534;6.378;2023-04-15T11:51:25;23.70;4.70
53776;DHT22;44276;49.534;6.378;2023-04-15T11:53:59;22.80;4.20
53776;DHT22;44276;49.534;6.378;2023-04-15T11:56:27;21.10;5.70
53776;DHT22;44276;49.534;6.378;2023-04-15T11:58:57;20.70;5.80
53776;DHT22;44276;49.534;6.378;2023-04-15T12:01:34;21.30;5.50
53776;DHT22;44276;49.534;6.378;2023-04-15T12:04:10;22.50;3.90
53776;DHT22;44276;49.534;6.378;2023-04-15T12:06:39;21.90;3.30
53776;DHT22;44276;49.534;6.378;2023-04-15T12:09:09;20.80;5.70
53776;DHT22;44276;49.534;6.378;2023-04-15T12:11:41;19.70;6.00
53776;DHT22;44276;49.534;6.378;2023-04-15T12:14:20;19.50;6.70
53776;DHT22;44276;49.534;6.378;2023-04-15T12:16:55;21.00;5.60
53776;DHT22;44276;49.534;6.378;2023-04-15T12:19:27;21.80;6.10
53776;DHT22;44276;49.534;6.378;2023-04-15T12:21:59;21.70;5.10
53776;DHT22;44276;49.534;6.378;2023-04-15T12:24:31;21.80;4.40
53776;DHT22;44276;49.534;6.378;2023-04-15T12:27:03;22.10;4.80
53776;DHT22;44276;49.534;6.378;2023-04-15T12:29:34;22.20;4.90
53776;DHT22;44276;49.534;6.378;2023-04-15T12:32:06;22.40;4.50
53776;DHT22;44276;49.534;6.378;2023-04-15T12:34:37;23.00;4.50
53776;DHT22;44276;49.534;6.378;2023-04-15T12:37:08;22.60;3.90
53776;DHT22;44276;49.534;6.378;2023-04-15T12:39:40;22.20;3.20
53776;DHT22;44276;49.534;6.378;2023-04-15T12:42:09;21.80;3.40
53776;DHT22;44276;49.534;6.378;2023-04-15T12:44:39;22.60;4.30
53776;DHT22;44276;49.534;6.378;2023-04-15T12:47:09;22.90;2.20
53776;DHT22;44276;49.534;6.378;2023-04-15T12:49:38;22.50;2.30
53776;DHT22;44276;49.534;6.378;2023-04-15T12:52:06;22.80;3.40
53776;DHT22;44276;49.534;6.378;2023-04-15T12:54:35;23.50;3.80
53776;DHT22;44276;49.534;6.378;2023-04-15T12:57:03;23.20;5.20
53776;DHT22;44276;49.534;6.378;2023-04-15T12:59:33;22.90;4.30
53776;DHT22;44276;49.534;6.378;2023-04-15T13:02:03;22.70;3.90
53776;DHT22;44276;49.534;6.378;2023-04-15T13:04:32;21.20;5.50
53776;DHT22;44276;49.534;6.378;2023-04-15T13:07:01;20.60;6.70
53776;DHT22;44276;49.534;6.378;2023-04-15T13:09:29;20.30;6.60
53776;DHT22;44276;49.534;6.378;2023-04-15T13:11:58;20.60;6.80
53776;DHT22;44276;49.534;6.378;2023-04-15T13:14:26;20.60;6.10
53776;DHT22;44276;49.534;6.378;2023-04-15T13:16:54;20.90;4.80
53776;DHT22;44276;49.534;6.378;2023-04-15T13:19:22;20.90;4.70
53776;DHT22;44276;49.534;6.378;2023-04-15T13:21:51;21.10;4.90
53776;DHT22;44276;49.534;6.378;2023-04-15T13:24:20;21.50;3.80
53776;DHT22;44276;49.534;6.378;2023-04-15T13:26:48;21.30;2.80
53776;DHT22;44276;49.534;6.378;2023-04-15T13:29:16;21.20;3.70
53776;DHT22;44276;49.534;6.378;2023-04-15T13:31:44;21.00;3.30
53776;DHT22;44276;49.534;6.378;2023-04-15T13:34:12;21.10;3.90
53776;DHT22;44276;49.534;6.378;2023-04-15T13:36:40;21.30;4.20
53776;DHT22;44276;49.534;6.378;2023-04-15T13:39:09;20.80;3.00
53776;DHT22;44276;49.534;6.378;2023-04-15T13:41:38;20.80;5.10
53776;DHT22;44276;49.534;6.378;2023-04-15T13:44:06;20.70;4.60
53776;DHT22;44276;49.534;6.378;2023-04-15T13:46:34;20.30;5.70
53776;DHT22;44276;49.534;6.378;2023-04-15T13:49:03;19.60;5.80
53776;DHT22;44276;49.534;6.378;2023-04-15T13:51:31;18.80;5.90
53776;DHT22;44276;49.534;6.378;2023-04-15T13:54:01;18.60;4.80
53776;DHT22;44276;49.534;6.378;2023-04-15T13:56:31;18.60;5.80
53776;DHT22;44276;49.534;6.378;2023-04-15T13:58:59;18.80;5.10
53776;DHT22;44276;49.534;6.378;2023-04-15T14:01:28;19.20;5.00
53776;DHT22;44276;49.534;6.378;2023-04-15T14:03:56;19.70;5.60
53776;DHT22;44276;49.534;6.378;2023-04-15T14:06:25;20.00;3.60
53776;DHT22;44276;49.534;6.378;2023-04-15T14:08:54;19.70;3.60
53776;DHT22;44276;49.534;6.378;2023-04-15T14:11:22;19.10;4.90
53776;DHT22;44276;49.534;6.378;2023-04-15T14:13:51;19.20;3.50
53776;DHT22;44276;49.534;6.378;2023-04-15T14:16:19;19.20;4.40
53776;DHT22;44276;49.534;6.378;2023-04-15T14:18:48;19.30;4.20
53776;DHT22;44276;49.534;6.378;2023-04-15T14:21:16;19.40;4.10
53776;DHT22;44276;49.534;6.378;2023-04-15T14:23:44;19.60;3.80
53776;DHT22;44276;49.534;6.378;2023-04-15T14:26:12;19.40;3.70
53776;DHT22;44276;49.534;6.378;2023-04-15T14:28:40;19.00;3.80
53776;DHT22;44276;49.534;6.378;2023-04-15T14:31:11;18.60;4.50
53776;DHT22;44276;49.534;6.378;2023-04-15T14:33:40;18.30;4.70
53776;DHT22;44276;49.534;6.378;2023-04-15T14:36:08;18.20;5.30
53776;DHT22;44276;49.534;6.378;2023-04-15T14:38:36;18.20;5.20
53776;DHT22;44276;49.534;6.378;2023-04-15T14:41:06;18.10;5.70
53776;DHT22;44276;49.534;6.378;2023-04-15T14:43:34;18.20;5.80
53776;DHT22;44276;49.534;6.378;2023-04-15T14:46:03;17.70;5.40
53776;DHT22;44276;49.534;6.378;2023-04-15T14:48:32;17.70;7.20
53776;DHT22;44276;49.534;6.378;2023-04-15T14:51:01;17.90;7.20
53776;DHT22;44276;49.534;6.378;2023-04-15T14:53:29;17.50;8.30
53776;DHT22;44276;49.534;6.378;2023-04-15T14:55:57;17.40;7.70
53776;DHT22;44276;49.534;6.378;2023-04-15T14:58:25;17.60;7.50
53776;DHT22;44276;49.534;6.378;2023-04-15T15:00:53;17.70;7.80
53776;DHT22;44276;49.534;6.378;2023-04-15T15:03:21;17.90;7.80
53776;DHT22;44276;49.534;6.378;2023-04-15T15:05:51;17.90;7.70
53776;DHT22;44276;49.534;6.378;2023-04-15T15:08:19;18.40;7.60
53776;DHT22;44276;49.534;6.378;2023-04-15T15:10:48;18.00;7.80
53776;DHT22;44276;49.534;6.378;2023-04-15T15:13:16;17.90;7.90
53776;DHT22;44276;49.534;6.378;2023-04-15T15:15:45;18.00;8.40
53776;DHT22;44276;49.534;6.378;2023-04-15T15:18:16;18.10;8.40
53776;DHT22;44276;49.534;6.378;2023-04-15T15:20:45;17.90;8.60
53776;DHT22;44276;49.534;6.378;2023-04-15T15:23:15;18.10;8.80
53776;DHT22;44276;49.534;6.378;2023-04-15T15:25:44;18.30;8.50
53776;DHT22;44276;49.534;6.378;2023-04-15T15:28:13;18.90;8.70
53776;DHT22;44276;49.534;6.378;2023-04-15T15:30:41;19.10;9.10
53776;DHT22;44276;49.534;6.378;2023-04-15T15:33:09;19.30;9.30
53776;DHT22;44276;49.534;6.378;2023-04-15T15:35:37;19.40;9.60
53776;DHT22;44276;49.534;6.378;2023-04-15T15:38:06;19.40;9.40
53776;DHT22;44276;49.534;6.378;2023-04-15T15:40:35;19.20;10.20
53776;DHT22;44276;49.534;6.378;2023-04-15T15:43:03;18.50;10.90
53776;DHT22;44276;49.534;6.378;2023-04-15T15:45:32;18.30;11.50
53776;DHT22;44276;49.534;6.378;2023-04-15T15:48:00;18.00;12.30
53776;DHT22;44276;49.534;6.378;2023-04-15T15:50:28;17.80;12.70
53776;DHT22;44276;49.534;6.378;2023-04-15T15:52:56;17.60;13.10
53776;DHT22;44276;49.534;6.378;2023-04-15T15:55:25;17.40;14.20
53776;DHT22;44276;49.534;6.378;2023-04-15T15:57:54;17.10;14.10
53776;DHT22;44276;49.534;6.378;2023-04-15T16:00:23;16.80;14.70